Latest Weather Observations for Salmon Gums RS

IDW60801

Issued at 3:32 pm WST Wednesday 27 May 2015 (issued every 30 minutes, with the page automatically refreshed every 10 minutes)

About weather observations | Map of weather stations | Latest weather observations for WA | Other Formats
Station Details ID: 012071 Name: SALMON GUMS RES.STN. Lat: -32.99 Lon: 121.62 Height: 249.0 m
Data from the previous 72 hours. | See also: Recent months at Salmon Gums RS
Date/Time
WST
Temp
°C
App
Temp
°C
Dew
Point
Rel
Hum
%
Delta-T
°C
Wind Press
QNH
hPa
Press
MSL
hPa
Rain
since 9 am
mm
Dir
 
Spd
km/h
Gust
km/h
Spd
kts
Gust
kts
27/03:30pm 15.2 11.4 4.0 47 5.2 W 13 20 7 11 - - 0.0
27/03:00pm 15.7 11.6 4.1 46 5.5 WSW 15 30 8 16 - - 0.0
27/02:30pm 15.9 11.8 4.6 47 5.4 W 15 24 8 13 - - 0.0
27/02:00pm 15.8 12.3 5.4 50 5.0 WNW 13 20 7 11 - - 0.0
27/01:30pm 15.3 12.5 5.2 51 4.8 W 9 19 5 10 - - 0.0
27/01:00pm 14.9 11.0 5.4 53 4.6 W 15 22 8 12 - - 0.0
27/12:30pm 15.0 12.0 6.0 55 4.4 W 11 19 6 10 - - 0.0
27/12:00pm 14.4 11.3 5.5 55 4.3 W 11 20 6 11 - - 0.0
27/11:30am 14.6 11.2 5.9 56 4.2 W 13 19 7 10 - - 0.0
27/11:00am 14.3 11.0 6.4 59 3.9 WSW 13 17 7 9 - - 0.0
27/10:30am 13.9 10.4 7.0 63 3.4 W 15 22 8 12 - - 0.0
27/10:00am 12.0 8.6 6.1 67 2.8 W 13 19 7 10 - - 0.0
27/09:30am 11.4 9.4 10.1 92 0.7 NW 11 17 6 9 - - 0.0
27/09:00am 10.3 8.2 9.7 96 0.3 WNW 11 17 6 9 - - 0.2
27/08:30am 9.7 7.8 9.1 96 0.3 NW 9 15 5 8 - - 0.2
27/08:00am 9.1 7.4 8.5 96 0.3 NW 7 13 4 7 - - 0.2
27/07:30am 8.6 6.4 8.0 96 0.3 NW 9 11 5 6 - - 0.2
27/07:00am 8.3 6.4 7.7 96 0.3 NW 7 11 4 6 - - 0.2
27/06:30am 7.9 5.6 7.3 96 0.3 NW 9 13 5 7 - - 0.2
27/06:00am 7.0 4.1 6.4 96 0.3 NNW 11 15 6 8 - - 0.2
27/05:30am 6.4 3.4 5.8 96 0.3 NNW 11 15 6 8 - - 0.2
27/05:00am 6.6 4.0 5.9 95 0.3 NW 9 11 5 6 - - 0.2
27/04:30am 6.5 3.8 5.8 95 0.3 WNW 9 13 5 7 - - 0.2
27/04:00am 6.1 3.0 5.4 95 0.3 NW 11 13 6 7 - - 0.2
27/03:30am 6.4 3.7 5.7 95 0.3 NW 9 11 5 6 - - 0.0
27/03:00am 5.5 2.6 4.8 95 0.3 NW 9 13 5 7 - - 0.0
27/02:30am 4.1 1.0 3.4 95 0.3 NW 9 11 5 6 - - 0.0
27/02:00am 3.4 0.7 2.5 94 0.4 NW 6 7 3 4 - - 0.0
27/01:30am 3.7 1.0 2.8 94 0.4 NW 6 9 3 5 - - 0.0
27/01:00am 4.0 1.4 3.1 94 0.4 NW 6 7 3 4 - - 0.0
27/12:30am 4.1 1.5 3.2 94 0.4 NW 6 6 3 3 - - 0.0
27/12:00am 4.1 1.9 3.1 93 0.4 WNW 4 4 2 2 - - 0.0
 
Date/Time
WST
Temp
°C
App
Temp
°C
Dew
Point
Rel
Hum
%
Delta-T
°C
Wind Press
QNH
hPa
Press
MSL
hPa
Rain
since 9 am
mm
Dir
 
Spd
km/h
Gust
km/h
Spd
kts
Gust
kts
26/11:30pm 4.5 2.7 3.5 93 0.4 W 2 4 1 2 - - 0.0
26/11:00pm 4.8 2.6 3.6 92 0.5 W 4 4 2 2 - - 0.0
26/10:30pm 5.3 3.2 3.8 90 0.6 SSW 4 4 2 2 - - 0.0
26/10:00pm 5.8 3.7 4.1 89 0.7 SSW 4 4 2 2 - - 0.0
26/09:30pm 6.5 5.0 4.8 89 0.8 SSW 2 4 1 2 - - 0.0
26/09:00pm 6.6 5.5 4.9 89 0.8 CALM 0 0 0 0 - - 0.0
26/08:30pm 8.0 6.4 6.3 89 0.8 SSW 4 4 2 2 - - 0.0
26/08:00pm 8.9 8.2 7.0 88 0.9 CALM 0 0 0 0 - - 0.0
26/07:30pm 10.4 9.6 8.2 86 1.1 SSW 2 2 1 1 - - 0.0
26/07:00pm 11.5 9.9 8.9 84 1.3 SSW 7 9 4 5 - - 0.0
26/06:30pm 12.0 10.6 9.0 82 1.5 SSW 6 9 3 5 - - 0.0
26/06:00pm 12.7 10.4 7.4 70 2.6 SSW 9 13 5 7 - - 0.0
26/05:30pm 13.9 12.3 6.5 61 3.6 WSW 4 6 2 3 - - 0.0
26/05:00pm 15.6 13.6 7.1 57 4.2 WSW 7 13 4 7 - - 0.0
26/04:30pm 16.8 13.3 7.4 54 4.8 SW 15 22 8 12 - - 0.0
26/04:00pm 17.6 13.1 7.1 50 5.3 SW 20 28 11 15 - - 0.0
26/03:30pm 18.1 14.0 7.8 51 5.3 SW 19 30 10 16 - - 0.0
26/03:00pm 19.2 14.9 7.9 48 5.9 SW 20 32 11 17 - - 0.0
26/02:30pm 20.4 15.9 4.4 35 7.8 W 17 33 9 18 - - 0.0
26/02:00pm 20.6 15.4 3.8 33 8.1 WSW 20 32 11 17 - - 0.0
26/01:30pm 20.4 16.2 3.6 33 8.1 WSW 15 24 8 13 - - 0.0
26/01:00pm 19.9 15.7 4.0 35 7.7 WSW 15 26 8 14 - - 0.0
26/12:30pm 19.7 16.2 5.4 39 7.1 WNW 13 24 7 13 - - 0.0
26/12:00pm 19.6 15.8 6.0 41 6.8 W 15 24 8 13 - - 0.0
26/11:30am 18.9 14.1 5.7 42 6.6 W 20 35 11 19 - - 0.0
26/11:00am 19.0 15.6 7.8 48 5.8 W 15 24 8 13 - - 0.0
26/10:30am 18.1 15.3 8.7 54 4.9 W 13 20 7 11 - - 0.0
26/10:00am 16.5 12.9 8.2 58 4.3 W 17 26 9 14 - - 0.0
26/09:30am 15.7 12.5 8.4 62 3.7 W 15 24 8 13 - - 0.0
26/09:00am 14.6 12.4 9.2 70 2.8 W 11 17 6 9 - - 0.0
26/08:30am 13.6 11.4 9.3 75 2.2 W 11 19 6 10 - - 0.0
26/08:00am 11.5 9.4 9.9 90 0.8 W 11 17 6 9 - - 0.0
26/07:30am 9.6 7.6 8.5 93 0.5 W 9 13 5 7 - - 0.0
26/07:00am 8.9 7.1 7.8 93 0.5 WNW 7 11 4 6 - - 0.0
26/06:30am 8.8 6.9 7.7 93 0.5 WNW 7 9 4 5 - - 0.0
26/06:00am 9.0 6.8 7.9 93 0.5 WNW 9 11 5 6 - - 0.0
26/05:30am 8.9 6.7 7.8 93 0.5 NW 9 11 5 6 - - 0.0
26/05:00am 7.2 4.9 5.8 91 0.6 WNW 7 9 4 5 - - 0.0
26/04:30am 7.5 5.3 6.1 91 0.6 NW 7 9 4 5 - - 0.0
26/04:00am 8.0 5.9 6.6 91 0.7 NW 7 9 4 5 - - 0.0
26/03:30am 8.0 5.5 6.6 91 0.7 NW 9 11 5 6 - - 0.0
26/03:00am 8.6 6.6 6.9 89 0.8 NW 7 9 4 5 - - 0.0
26/02:30am 9.3 7.4 7.4 88 0.9 NW 7 9 4 5 - - 0.0
26/02:00am 9.1 7.1 6.9 86 1.0 WNW 7 9 4 5 - - 0.0
26/01:30am 9.8 7.9 7.6 86 1.1 WNW 7 11 4 6 - - 0.0
26/01:00am 10.1 8.3 7.9 86 1.1 WNW 7 9 4 5 - - 0.0
26/12:30am 8.9 7.0 6.5 85 1.1 NW 6 6 3 3 - - 0.0
26/12:00am 8.8 6.8 6.1 83 1.3 NNE 6 7 3 4 - - 0.0
 
Date/Time
WST
Temp
°C
App
Temp
°C
Dew
Point
Rel
Hum
%
Delta-T
°C
Wind Press
QNH
hPa
Press
MSL
hPa
Rain
since 9 am
mm
Dir
 
Spd
km/h
Gust
km/h
Spd
kts
Gust
kts
25/11:30pm 9.8 8.3 6.9 82 1.4 NNW 4 6 2 3 - - 0.0
25/11:00pm 10.1 9.4 6.8 80 1.6 CALM 0 0 0 0 - - 0.0
25/10:30pm 11.2 10.6 7.5 78 1.8 CALM 0 2 0 1 - - 0.0
25/10:00pm 11.8 10.9 7.7 76 2.0 SE 2 4 1 2 - - 0.0
25/09:30pm 12.0 11.1 7.9 76 2.0 E 2 4 1 2 - - 0.0
25/09:00pm 12.4 10.7 8.5 77 2.0 NW 7 9 4 5 - - 0.0
25/08:30pm 12.6 10.9 8.3 75 2.2 NW 7 9 4 5 - - 0.0
25/08:00pm 13.6 11.6 8.7 72 2.5 NNW 9 13 5 7 - - 0.0
25/07:30pm 14.1 12.1 8.7 70 2.8 NNW 9 13 5 7 - - 0.0
25/07:00pm 14.5 12.9 8.7 68 3.0 NNW 7 9 4 5 - - 0.0
25/06:30pm 15.0 13.4 8.9 67 3.1 NNW 7 11 4 6 - - 0.0
25/06:00pm 13.3 11.7 8.2 71 2.6 NNW 6 9 3 5 - - 0.0
25/05:30pm 14.2 12.7 8.4 68 2.9 NW 6 7 3 4 - - 0.0
25/05:00pm 16.6 15.7 9.1 61 3.9 NW 4 6 2 3 - - 0.0
25/04:30pm 18.4 16.1 10.3 59 4.4 N 13 20 7 11 - - 0.0
25/04:00pm 20.4 19.8 9.0 48 6.1 NNW 2 4 1 2 - - 0.0
25/03:30pm 20.7 19.3 8.7 46 6.4 N 6 9 3 5 - - 0.0
25/03:00pm 21.7 21.5 8.9 44 6.9 CALM 0 4 0 2 - - 0.0
25/02:30pm 20.4 19.6 9.6 50 5.8 NE 4 6 2 3 - - 0.0
25/02:00pm 20.6 18.5 9.8 50 5.9 N 11 17 6 9 - - 0.0
25/01:30pm 21.1 20.1 10.3 50 5.9 NW 6 9 3 5 - - 0.0
25/01:00pm 20.7 19.5 10.2 51 5.7 N 7 19 4 10 - - 0.0
25/12:30pm 20.1 17.9 10.8 55 5.1 N 13 17 7 9 - - 0.0
25/12:00pm 19.9 18.6 11.1 57 4.9 NNE 9 19 5 10 - - 0.0
25/11:30am 19.1 18.3 11.2 60 4.4 N 6 9 3 5 - - 0.0
25/11:00am 17.9 17.1 11.0 64 3.8 NNE 6 9 3 5 - - 0.0
25/10:30am 17.0 16.3 11.3 69 3.1 NNE 6 15 3 8 - - 0.0
25/10:00am 15.6 14.8 11.2 75 2.4 N 6 11 3 6 - - 0.0
25/09:30am 14.6 13.0 11.6 82 1.6 NNE 11 17 6 9 - - 0.0
25/09:00am 12.8 10.7 11.0 89 1.0 NE 13 19 7 10 - - 0.0
25/08:30am 12.0 10.7 11.1 94 0.5 N 9 15 5 8 - - 0.0
25/08:00am 11.6 11.9 10.8 95 0.4 CALM 0 7 0 4 - - 0.0
25/07:30am 11.1 11.2 10.3 95 0.4 CALM 0 0 0 0 - - 0.0
25/07:00am 10.8 10.5 10.0 95 0.4 NE 2 4 1 2 - - 0.0
25/06:30am 10.9 9.6 10.1 95 0.4 NNE 7 11 4 6 - - 0.0
25/06:00am 10.9 9.6 10.1 95 0.4 NE 7 11 4 6 - - 0.0
25/05:30am 10.8 8.8 10.2 96 0.3 NE 11 15 6 8 - - 0.0
25/05:00am 10.8 9.1 10.0 95 0.4 NE 9 15 5 8 - - 0.0
25/04:30am 10.7 10.0 9.9 95 0.4 NE 4 7 2 4 - - 0.0
25/04:00am 10.6 8.9 9.8 95 0.4 ENE 9 15 5 8 - - 0.0
25/03:30am 10.2 8.8 9.6 96 0.3 NE 7 11 4 6 - - 0.0
25/03:00am 8.0 7.4 7.2 95 0.4 CALM 0 4 0 2 - - 0.0
25/02:30am 6.0 4.2 5.3 95 0.3 E 4 6 2 3 - - 0.0
25/02:00am 4.1 2.6 3.2 94 0.4 CALM 0 0 0 0 - - 0.0
25/01:30am 4.1 2.6 3.2 94 0.4 CALM 0 0 0 0 - - 0.0
25/01:00am 4.5 3.1 3.6 94 0.4 CALM 0 0 0 0 - - 0.0
25/12:30am 4.9 3.6 4.0 94 0.4 CALM 0 0 0 0 - - 0.0
25/12:00am 5.1 3.8 4.1 93 0.4 CALM 0 0 0 0 - - 0.0
 
Date/Time
WST
Temp
°C
App
Temp
°C
Dew
Point
Rel
Hum
%
Delta-T
°C
Wind Press
QNH
hPa
Press
MSL
hPa
Rain
since 9 am
mm
Dir
 
Spd
km/h
Gust
km/h
Spd
kts
Gust
kts
24/11:30pm 5.2 3.5 4.2 93 0.4 ESE 2 4 1 2 - - 0.0
24/11:00pm 5.4 3.4 4.4 93 0.4 ESE 4 4 2 2 - - 0.0
24/10:30pm 5.8 3.8 4.6 92 0.5 SE 4 6 2 3 - - 0.0
24/10:00pm 5.9 3.9 4.5 91 0.6 SE 4 4 2 2 - - 0.0
24/09:30pm 7.1 6.1 5.7 91 0.6 CALM 0 0 0 0 - - 0.0
24/09:00pm 7.7 6.5 6.3 91 0.6 SE 2 2 1 1 - - 0.0
24/08:30pm 8.1 6.9 6.4 89 0.8 SE 2 4 1 2 - - 0.0
24/08:00pm 8.8 7.3 6.9 88 0.9 SE 4 4 2 2 - - 0.0
24/07:30pm 11.0 9.7 9.1 88 1.0 SE 6 6 3 3 - - 0.0
24/07:00pm 11.5 10.0 9.2 86 1.2 SE 7 9 4 5 - - 0.0
24/06:30pm 12.4 11.1 9.8 84 1.3 SSE 7 9 4 5 - - 0.0
24/06:00pm 13.1 11.4 9.9 81 1.7 SSE 9 11 5 6 - - 0.0
24/05:30pm 14.1 12.5 10.3 78 2.0 SE 9 13 5 7 - - 0.0
24/05:00pm 15.5 13.3 10.9 74 2.5 SSE 13 19 7 10 - - 0.0
24/04:30pm 17.0 15.3 11.1 68 3.2 SSE 11 20 6 11 - - 0.0
24/04:00pm 17.5 16.1 9.4 59 4.3 SSE 7 13 4 7 - - 0.0

Other Formats:

Comma delimited format used in spreadsheet applications
http://www.bom.gov.au/fwo/IDW60801/IDW60801.95639.axf

JavaScript Object Notation format (JSON) in row-major order
http://www.bom.gov.au/fwo/IDW60801/IDW60801.95639.json